Home > Products > Valid Products > TAF

000
FTUS42 KMHX 032339
TAFEWN
TAF
KEWN 032339Z 0400/0424 20007KT P6SM VCSH SCT015 BKN090
     FM040500 22007KT P6SM BKN015
     FM041200 24014G24KT P6SM SCT050=



000
FTUS42 KMHX 031931 AAA
TAFEWN
TAF AMD
KEWN 031931Z 0320/0418 25014G21KT 1 1/2SM TSRA FEW020 BKN028CB
     FM032030 21010KT P6SM VCTS BKN035CB
      TEMPO 0322/0402 3SM TSRA BKN020CB
     FM040400 22007KT P6SM VCSH SCT010 BKN100
     FM041500 24012KT P6SM SCT030=



000
FTUS42 KMHX 031746
TAFEWN
TAF
KEWN 031746Z 0318/0418 21005KT P6SM BKN030
     FM032100 21010KT P6SM VCTS BKN035CB
      TEMPO 0322/0402 3SM TSRA BKN020CB
     FM040400 22007KT P6SM VCSH SCT010 BKN100
     FM041500 24012KT P6SM SCT030=



000
FTUS42 KMHX 031746
TAFEWN
TAF
KEWN 031746Z 0318/0418 21005KT P6SM BKN030
     FM032100 21010KT P6SM VCTS BKN035CB
      TEMPO 0322/0402 3SM TSRA BKN020CB
     FM040400 22007KT P6SM VCSH SCT010 BKN100
     FM041500 24012KT P6SM SCT030=



000
FTUS42 KMHX 031139
TAFEWN
TAF
KEWN 031139Z 0312/0412 22006KT P6SM VCSH OVC020
     FM031600 24005KT P6SM VCTS BKN050CB
     FM040400 22007KT P6SM VCSH SCT010 BKN100=



000
FTUS42 KMHX 031139
TAFEWN
TAF
KEWN 031139Z 0312/0412 22006KT P6SM VCSH OVC020
     FM031600 24005KT P6SM VCTS BKN050CB
     FM040400 22007KT P6SM VCSH SCT010 BKN100=



000
FTUS42 KMHX 031000 AAA
TAFEWN
TAF AMD
KEWN 031000Z 0310/0406 22006KT P6SM VCSH BKN020
     FM031600 23012G20KT P6SM VCTS BKN050CB
     FM040300 20005KT P6SM VCSH SCT010 BKN100=



000
FTUS42 KMHX 030540
TAFEWN
TAF
KEWN 030540Z 0306/0406 27008G17KT P6SM VCSH SCT010 BKN250
     FM031600 23012G20KT P6SM VCTS BKN050CB
     FM040300 20005KT P6SM VCSH SCT010 BKN100=



000
FTUS42 KMHX 030540
TAFEWN
TAF
KEWN 030540Z 0306/0406 27008G17KT P6SM VCSH SCT010 BKN250
     FM031600 23012G20KT P6SM VCTS BKN050CB
     FM040300 20005KT P6SM VCSH SCT010 BKN100=



000
FTUS42 KMHX 030205 AAA
TAFEWN
TAF AMD
KEWN 030205Z 0302/0324 21011G19KT P6SM VCSH BKN050
     FM030600 22008KT P6SM BKN080
     FM031600 23012G20KT P6SM VCTS BKN035CB=



000
FTUS42 KMHX 022321
TAFEWN
TAF
KEWN 022321Z 0300/0324 21009KT P6SM FEW050 FEW070
     FM030200 21006KT 3SM TSRA BKN025CB
     FM030600 22008KT P6SM VCSH BKN050
     FM031600 23012G20KT P6SM VCTS BKN035CB=



000
FTUS42 KMHX 021740
TAFEWN
TAF
KEWN 021740Z 0218/0318 25010G18KT P6SM SCT050
     FM022300 22007KT P6SM VCTS BKN050CB
     FM030200 21006KT 3SM TSRA BKN025CB
     FM030600 22008KT P6SM VCSH BKN050
     FM031600 23012G20KT P6SM VCTS BKN035CB=



000
FTUS42 KMHX 021123
TAFEWN
TAF
KEWN 021123Z 0212/0312 21006KT P6SM SCT100 BKN200
     FM021700 23012G19KT P6SM VCTS SCT050CB BKN100
     FM030000 22007KT P6SM VCTS BKN050CB
     FM030300 21006KT 3SM TSRA BKN025CB=



000
FTUS42 KMHX 020537
TAFEWN
TAF
KEWN 020537Z 0206/0306 22004KT P6SM BKN200
     FM021700 23012G19KT P6SM VCTS SCT050CB BKN100
     FM030000 22006KT P6SM VCTS BKN050CB=



000
FTUS42 KMHX 012320
TAFEWN
TAF
KEWN 012320Z 0200/0224 23006KT P6SM FEW040
     FM020200 21003KT P6SM SCT050 BKN250
     FM021200 24006KT P6SM SCT050 SCT250
     FM021600 23010G18KT P6SM SCT050 BKN250=



000
FTUS42 KMHX 012320
TAFEWN
TAF
KEWN 012320Z 0200/0224 23006KT P6SM FEW040
     FM020200 21003KT P6SM SCT050 BKN250
     FM021200 24006KT P6SM SCT050 SCT250
     FM021600 23010G18KT P6SM SCT050 BKN250=



000
FTUS42 KMHX 011720
TAFEWN
TAF
KEWN 011720Z 0118/0218 23007G16KT P6SM SCT030
     FM012300 21003KT P6SM SKC=



000
FTUS42 KMHX 011720
TAFEWN
TAF
KEWN 011720Z 0118/0218 23007G16KT P6SM SCT030
     FM012300 21003KT P6SM SKC=



000
FTUS42 KMHX 011404 AAA
TAFEWN
TAF AMD
KEWN 011404Z 0114/0212 26007KT P6SM OVC012
     FM011600 22009G16KT P6SM SCT030
     FM012300 21005KT P6SM SKC=



000
FTUS42 KMHX 011404 AAA
TAFEWN
TAF AMD
KEWN 011404Z 0114/0212 26007KT P6SM OVC012
     FM011600 22009G16KT P6SM SCT030
     FM012300 21005KT P6SM SKC=



000
FTUS42 KMHX 011139
TAFEWN
TAF
KEWN 011139Z 0112/0212 22006KT P6SM SCT015
      TEMPO 0112/0114 BKN015
     FM011400 25008KT P6SM SCT250
     FM012000 20009KT P6SM SCT050=



000
FTUS42 KMHX 010534
TAFEWN
TAF
KEWN 010534Z 0106/0206 22006KT P6SM SCT015
     FM011400 25008KT P6SM SCT250
     FM012000 20009KT P6SM SCT050=



000
FTUS42 KMHX 010534
TAFEWN
TAF
KEWN 010534Z 0106/0206 22006KT P6SM SCT015
     FM011400 25008KT P6SM SCT250
     FM012000 20009KT P6SM SCT050=



    US Dept of Commerce
    National Oceanic and Atmospheric Administration
    National Weather Service
    1325 East West Highway
    Silver Spring, MD 20910
    Page Author: NWS Internet Services Team
Disclaimer
Information Quality
Credits
Glossary
Privacy Policy
Freedom of Information Act (FOIA)
About Us
Career Opportunities